Terminal Aerodrome Forecast
Issued by NWS El Paso, TX

Home | Current Version | Previous Version | Text Only | Print | Product List | Glossary On
Versions: 1 2 3 4 5 6 7 8 9 10 11 12
778
FTUS44 KEPZ 250540
TAFELP
TAF
KELP 250540Z 2506/2606 05005KT P6SM SCT080
     FM250800 03010KT P6SM SCT080 SCT250
     FM251600 04012G20KT P6SM SCT070 BKN150 BKN250
     FM252100 07017G27KT P6SM BKN060 BKN150
     FM260300 05020G30KT P6SM SCT040 BKN070=

USA.gov is the U.S. government's official web portal to all federal, state and local government web resources and services.